sensor_id;sensor_type;location;lat;lon;timestamp;P1;durP1;ratioP1;P2;durP2;ratioP2
17451;SDS011;8843;48.838;9.324;2022-12-16T00:00:05;30.63;;;16.93;;
17451;SDS011;8843;48.838;9.324;2022-12-16T00:02:33;28.43;;;16.33;;
17451;SDS011;8843;48.838;9.324;2022-12-16T00:05:02;28.17;;;16.83;;
17451;SDS011;8843;48.838;9.324;2022-12-16T00:07:29;31.50;;;17.53;;
17451;SDS011;8843;48.838;9.324;2022-12-16T00:09:56;27.30;;;15.67;;
17451;SDS011;8843;48.838;9.324;2022-12-16T00:12:23;26.47;;;16.30;;
17451;SDS011;8843;48.838;9.324;2022-12-16T00:14:50;27.30;;;16.33;;
17451;SDS011;8843;48.838;9.324;2022-12-16T00:17:17;31.30;;;16.43;;
17451;SDS011;8843;48.838;9.324;2022-12-16T00:19:44;30.63;;;16.33;;
17451;SDS011;8843;48.838;9.324;2022-12-16T00:22:12;28.67;;;15.63;;
17451;SDS011;8843;48.838;9.324;2022-12-16T00:24:39;27.47;;;16.60;;
17451;SDS011;8843;48.838;9.324;2022-12-16T00:27:06;28.27;;;15.87;;
17451;SDS011;8843;48.838;9.324;2022-12-16T00:29:33;25.00;;;15.17;;
17451;SDS011;8843;48.838;9.324;2022-12-16T00:32:00;26.20;;;15.83;;
17451;SDS011;8843;48.838;9.324;2022-12-16T00:34:27;26.80;;;16.50;;
17451;SDS011;8843;48.838;9.324;2022-12-16T00:36:54;28.57;;;16.83;;
17451;SDS011;8843;48.838;9.324;2022-12-16T00:39:22;28.20;;;16.80;;
17451;SDS011;8843;48.838;9.324;2022-12-16T00:41:49;30.70;;;17.23;;
17451;SDS011;8843;48.838;9.324;2022-12-16T00:44:16;28.33;;;16.93;;
17451;SDS011;8843;48.838;9.324;2022-12-16T00:46:43;27.23;;;15.30;;
17451;SDS011;8843;48.838;9.324;2022-12-16T00:49:10;30.97;;;16.20;;
17451;SDS011;8843;48.838;9.324;2022-12-16T00:51:36;28.87;;;16.97;;
17451;SDS011;8843;48.838;9.324;2022-12-16T00:54:03;29.10;;;16.00;;
17451;SDS011;8843;48.838;9.324;2022-12-16T00:56:32;26.53;;;16.57;;
17451;SDS011;8843;48.838;9.324;2022-12-16T00:58:59;30.10;;;17.57;;
17451;SDS011;8843;48.838;9.324;2022-12-16T01:01:25;23.30;;;14.53;;
17451;SDS011;8843;48.838;9.324;2022-12-16T01:03:54;28.20;;;15.23;;
17451;SDS011;8843;48.838;9.324;2022-12-16T01:06:21;25.63;;;16.30;;
17451;SDS011;8843;48.838;9.324;2022-12-16T01:08:48;31.33;;;17.37;;
17451;SDS011;8843;48.838;9.324;2022-12-16T01:11:15;28.17;;;16.57;;
17451;SDS011;8843;48.838;9.324;2022-12-16T01:13:45;29.83;;;17.37;;
17451;SDS011;8843;48.838;9.324;2022-12-16T01:16:15;24.87;;;15.40;;
17451;SDS011;8843;48.838;9.324;2022-12-16T01:18:42;28.17;;;16.03;;
17451;SDS011;8843;48.838;9.324;2022-12-16T01:21:09;26.17;;;16.00;;
17451;SDS011;8843;48.838;9.324;2022-12-16T01:23:38;28.00;;;15.93;;
17451;SDS011;8843;48.838;9.324;2022-12-16T01:26:06;27.10;;;15.37;;
17451;SDS011;8843;48.838;9.324;2022-12-16T01:28:33;24.93;;;15.50;;
17451;SDS011;8843;48.838;9.324;2022-12-16T01:31:01;27.80;;;15.40;;
17451;SDS011;8843;48.838;9.324;2022-12-16T01:33:28;26.80;;;15.40;;
17451;SDS011;8843;48.838;9.324;2022-12-16T01:35:59;29.30;;;16.87;;
17451;SDS011;8843;48.838;9.324;2022-12-16T01:38:27;27.70;;;16.23;;
17451;SDS011;8843;48.838;9.324;2022-12-16T01:40:54;26.17;;;15.20;;
17451;SDS011;8843;48.838;9.324;2022-12-16T01:43:23;24.47;;;15.10;;
17451;SDS011;8843;48.838;9.324;2022-12-16T01:45:52;27.77;;;15.73;;
17451;SDS011;8843;48.838;9.324;2022-12-16T01:48:27;25.10;;;14.50;;
17451;SDS011;8843;48.838;9.324;2022-12-16T01:51:00;25.93;;;15.90;;
17451;SDS011;8843;48.838;9.324;2022-12-16T01:53:32;30.37;;;15.80;;
17451;SDS011;8843;48.838;9.324;2022-12-16T01:56:00;28.57;;;15.33;;
17451;SDS011;8843;48.838;9.324;2022-12-16T01:58:29;29.73;;;17.13;;
17451;SDS011;8843;48.838;9.324;2022-12-16T02:00:58;26.27;;;15.83;;
17451;SDS011;8843;48.838;9.324;2022-12-16T02:03:29;29.77;;;16.50;;
17451;SDS011;8843;48.838;9.324;2022-12-16T02:06:00;25.07;;;15.67;;
17451;SDS011;8843;48.838;9.324;2022-12-16T02:08:29;25.53;;;15.80;;
17451;SDS011;8843;48.838;9.324;2022-12-16T02:11:00;25.37;;;15.13;;
17451;SDS011;8843;48.838;9.324;2022-12-16T02:13:48;27.17;;;16.47;;
17451;SDS011;8843;48.838;9.324;2022-12-16T02:16:26;30.87;;;16.67;;
17451;SDS011;8843;48.838;9.324;2022-12-16T02:19:13;24.90;;;14.93;;
17451;SDS011;8843;48.838;9.324;2022-12-16T02:21:57;26.77;;;15.13;;
17451;SDS011;8843;48.838;9.324;2022-12-16T02:24:49;24.17;;;15.47;;
17451;SDS011;8843;48.838;9.324;2022-12-16T02:30:35;26.83;;;15.37;;
17451;SDS011;8843;48.838;9.324;2022-12-16T02:33:24;25.07;;;14.80;;
17451;SDS011;8843;48.838;9.324;2022-12-16T02:35:59;27.33;;;16.00;;
17451;SDS011;8843;48.838;9.324;2022-12-16T02:38:35;26.73;;;16.57;;
17451;SDS011;8843;48.838;9.324;2022-12-16T02:41:10;28.37;;;16.33;;
17451;SDS011;8843;48.838;9.324;2022-12-16T02:43:47;29.67;;;16.77;;
17451;SDS011;8843;48.838;9.324;2022-12-16T02:46:19;28.93;;;15.90;;
17451;SDS011;8843;48.838;9.324;2022-12-16T02:48:48;29.50;;;16.83;;
17451;SDS011;8843;48.838;9.324;2022-12-16T02:51:15;29.43;;;15.43;;
17451;SDS011;8843;48.838;9.324;2022-12-16T02:53:44;28.57;;;17.33;;
17451;SDS011;8843;48.838;9.324;2022-12-16T02:56:15;26.07;;;16.03;;
17451;SDS011;8843;48.838;9.324;2022-12-16T02:58:51;27.17;;;16.23;;
17451;SDS011;8843;48.838;9.324;2022-12-16T03:01:33;29.37;;;16.00;;
17451;SDS011;8843;48.838;9.324;2022-12-16T03:04:06;28.33;;;16.27;;
17451;SDS011;8843;48.838;9.324;2022-12-16T03:06:36;28.40;;;16.90;;
17451;SDS011;8843;48.838;9.324;2022-12-16T03:09:07;27.40;;;16.37;;
17451;SDS011;8843;48.838;9.324;2022-12-16T03:11:38;29.47;;;17.00;;
17451;SDS011;8843;48.838;9.324;2022-12-16T03:14:08;26.10;;;14.97;;
17451;SDS011;8843;48.838;9.324;2022-12-16T03:16:39;27.30;;;15.80;;
17451;SDS011;8843;48.838;9.324;2022-12-16T03:19:09;27.43;;;16.37;;
17451;SDS011;8843;48.838;9.324;2022-12-16T03:21:42;28.20;;;16.10;;
17451;SDS011;8843;48.838;9.324;2022-12-16T03:24:14;26.70;;;16.27;;
17451;SDS011;8843;48.838;9.324;2022-12-16T03:26:43;28.73;;;16.70;;
17451;SDS011;8843;48.838;9.324;2022-12-16T03:29:20;28.07;;;17.47;;
17451;SDS011;8843;48.838;9.324;2022-12-16T03:31:53;28.77;;;17.20;;
17451;SDS011;8843;48.838;9.324;2022-12-16T03:34:24;27.97;;;15.30;;
17451;SDS011;8843;48.838;9.324;2022-12-16T03:36:59;26.20;;;14.40;;
17451;SDS011;8843;48.838;9.324;2022-12-16T03:39:29;28.80;;;16.27;;
17451;SDS011;8843;48.838;9.324;2022-12-16T03:41:58;26.83;;;16.43;;
17451;SDS011;8843;48.838;9.324;2022-12-16T03:44:26;25.00;;;16.17;;
17451;SDS011;8843;48.838;9.324;2022-12-16T03:46:55;24.93;;;15.50;;
17451;SDS011;8843;48.838;9.324;2022-12-16T03:49:22;24.30;;;15.27;;
17451;SDS011;8843;48.838;9.324;2022-12-16T03:51:49;27.37;;;16.47;;
17451;SDS011;8843;48.838;9.324;2022-12-16T03:54:15;24.43;;;15.00;;
17451;SDS011;8843;48.838;9.324;2022-12-16T03:56:43;30.60;;;15.80;;
17451;SDS011;8843;48.838;9.324;2022-12-16T03:59:10;23.83;;;15.73;;
17451;SDS011;8843;48.838;9.324;2022-12-16T04:01:37;26.10;;;15.90;;
17451;SDS011;8843;48.838;9.324;2022-12-16T04:04:05;24.43;;;15.23;;
17451;SDS011;8843;48.838;9.324;2022-12-16T04:06:32;24.77;;;15.67;;
17451;SDS011;8843;48.838;9.324;2022-12-16T04:08:59;25.20;;;15.23;;
17451;SDS011;8843;48.838;9.324;2022-12-16T04:11:26;24.70;;;14.00;;
17451;SDS011;8843;48.838;9.324;2022-12-16T04:14:10;28.23;;;16.13;;
17451;SDS011;8843;48.838;9.324;2022-12-16T04:16:55;24.07;;;14.27;;
17451;SDS011;8843;48.838;9.324;2022-12-16T04:19:42;21.23;;;13.07;;
17451;SDS011;8843;48.838;9.324;2022-12-16T04:22:28;22.40;;;14.27;;
17451;SDS011;8843;48.838;9.324;2022-12-16T04:25:21;22.57;;;13.83;;
17451;SDS011;8843;48.838;9.324;2022-12-16T04:27:50;23.70;;;14.60;;
17451;SDS011;8843;48.838;9.324;2022-12-16T04:30:17;27.37;;;15.07;;
17451;SDS011;8843;48.838;9.324;2022-12-16T04:32:45;23.40;;;13.17;;
17451;SDS011;8843;48.838;9.324;2022-12-16T04:35:34;23.80;;;13.37;;
17451;SDS011;8843;48.838;9.324;2022-12-16T04:38:18;22.03;;;12.47;;
17451;SDS011;8843;48.838;9.324;2022-12-16T04:41:02;21.37;;;12.53;;
17451;SDS011;8843;48.838;9.324;2022-12-16T04:43:46;20.90;;;13.17;;
17451;SDS011;8843;48.838;9.324;2022-12-16T04:46:31;22.10;;;13.63;;
17451;SDS011;8843;48.838;9.324;2022-12-16T04:49:15;25.47;;;14.00;;
17451;SDS011;8843;48.838;9.324;2022-12-16T04:52:01;24.23;;;14.03;;
17451;SDS011;8843;48.838;9.324;2022-12-16T04:54:45;20.10;;;12.40;;
17451;SDS011;8843;48.838;9.324;2022-12-16T04:57:29;25.93;;;13.90;;
17451;SDS011;8843;48.838;9.324;2022-12-16T05:00:13;22.03;;;12.57;;
17451;SDS011;8843;48.838;9.324;2022-12-16T05:02:58;21.90;;;11.83;;
17451;SDS011;8843;48.838;9.324;2022-12-16T05:05:42;20.47;;;11.10;;
17451;SDS011;8843;48.838;9.324;2022-12-16T05:08:28;21.80;;;13.70;;
17451;SDS011;8843;48.838;9.324;2022-12-16T05:11:12;19.30;;;11.87;;
17451;SDS011;8843;48.838;9.324;2022-12-16T05:13:57;21.77;;;12.77;;
17451;SDS011;8843;48.838;9.324;2022-12-16T05:16:41;24.40;;;14.57;;
17451;SDS011;8843;48.838;9.324;2022-12-16T05:19:25;20.23;;;11.37;;
17451;SDS011;8843;48.838;9.324;2022-12-16T05:22:09;20.77;;;12.47;;
17451;SDS011;8843;48.838;9.324;2022-12-16T05:24:55;21.83;;;13.20;;
17451;SDS011;8843;48.838;9.324;2022-12-16T05:27:39;18.10;;;11.23;;
17451;SDS011;8843;48.838;9.324;2022-12-16T05:30:23;20.73;;;11.67;;
17451;SDS011;8843;48.838;9.324;2022-12-16T05:33:08;22.13;;;12.70;;
17451;SDS011;8843;48.838;9.324;2022-12-16T05:35:52;20.40;;;13.50;;
17451;SDS011;8843;48.838;9.324;2022-12-16T05:38:36;23.60;;;12.73;;
17451;SDS011;8843;48.838;9.324;2022-12-16T05:41:22;21.07;;;12.77;;
17451;SDS011;8843;48.838;9.324;2022-12-16T05:44:07;20.53;;;13.17;;
17451;SDS011;8843;48.838;9.324;2022-12-16T05:46:51;20.83;;;13.73;;
17451;SDS011;8843;48.838;9.324;2022-12-16T05:49:35;20.20;;;12.33;;
17451;SDS011;8843;48.838;9.324;2022-12-16T05:52:19;24.20;;;12.90;;
17451;SDS011;8843;48.838;9.324;2022-12-16T05:55:04;19.97;;;12.57;;
17451;SDS011;8843;48.838;9.324;2022-12-16T05:57:50;20.07;;;12.37;;
17451;SDS011;8843;48.838;9.324;2022-12-16T06:00:35;23.00;;;12.93;;
17451;SDS011;8843;48.838;9.324;2022-12-16T06:03:20;21.37;;;12.53;;
17451;SDS011;8843;48.838;9.324;2022-12-16T06:06:05;21.07;;;12.97;;
17451;SDS011;8843;48.838;9.324;2022-12-16T06:08:50;20.57;;;12.50;;
17451;SDS011;8843;48.838;9.324;2022-12-16T06:11:34;21.17;;;13.23;;
17451;SDS011;8843;48.838;9.324;2022-12-16T06:14:20;18.50;;;12.93;;
17451;SDS011;8843;48.838;9.324;2022-12-16T06:17:05;19.27;;;13.23;;
17451;SDS011;8843;48.838;9.324;2022-12-16T06:19:49;19.47;;;11.93;;
17451;SDS011;8843;48.838;9.324;2022-12-16T06:22:33;20.60;;;12.40;;
17451;SDS011;8843;48.838;9.324;2022-12-16T06:25:17;20.83;;;12.33;;
17451;SDS011;8843;48.838;9.324;2022-12-16T06:28:02;19.90;;;11.87;;
17451;SDS011;8843;48.838;9.324;2022-12-16T06:31:01;20.10;;;12.23;;
17451;SDS011;8843;48.838;9.324;2022-12-16T06:33:46;19.13;;;11.57;;
17451;SDS011;8843;48.838;9.324;2022-12-16T06:36:30;19.73;;;12.03;;
17451;SDS011;8843;48.838;9.324;2022-12-16T06:39:15;19.87;;;11.83;;
17451;SDS011;8843;48.838;9.324;2022-12-16T06:41:59;19.20;;;11.83;;
17451;SDS011;8843;48.838;9.324;2022-12-16T06:44:43;21.13;;;11.63;;
17451;SDS011;8843;48.838;9.324;2022-12-16T06:47:28;17.17;;;11.13;;
17451;SDS011;8843;48.838;9.324;2022-12-16T06:50:13;17.70;;;11.57;;
17451;SDS011;8843;48.838;9.324;2022-12-16T06:52:57;18.37;;;11.70;;
17451;SDS011;8843;48.838;9.324;2022-12-16T06:55:42;19.53;;;10.93;;
17451;SDS011;8843;48.838;9.324;2022-12-16T06:58:26;17.10;;;11.17;;
17451;SDS011;8843;48.838;9.324;2022-12-16T07:01:10;16.60;;;10.67;;
17451;SDS011;8843;48.838;9.324;2022-12-16T07:03:55;20.40;;;12.67;;
17451;SDS011;8843;48.838;9.324;2022-12-16T07:06:40;18.00;;;10.57;;
17451;SDS011;8843;48.838;9.324;2022-12-16T07:09:24;19.57;;;11.60;;
17451;SDS011;8843;48.838;9.324;2022-12-16T07:12:08;19.80;;;11.93;;
17451;SDS011;8843;48.838;9.324;2022-12-16T07:14:52;22.73;;;11.80;;
17451;SDS011;8843;48.838;9.324;2022-12-16T07:17:38;20.30;;;12.53;;
17451;SDS011;8843;48.838;9.324;2022-12-16T07:20:24;20.60;;;11.37;;
17451;SDS011;8843;48.838;9.324;2022-12-16T07:23:08;19.47;;;11.37;;
17451;SDS011;8843;48.838;9.324;2022-12-16T07:25:53;22.17;;;11.77;;
17451;SDS011;8843;48.838;9.324;2022-12-16T07:28:39;21.30;;;11.70;;
17451;SDS011;8843;48.838;9.324;2022-12-16T07:31:23;17.70;;;10.90;;
17451;SDS011;8843;48.838;9.324;2022-12-16T07:34:07;20.03;;;10.63;;
17451;SDS011;8843;48.838;9.324;2022-12-16T07:36:53;17.47;;;11.33;;
17451;SDS011;8843;48.838;9.324;2022-12-16T07:39:37;16.13;;;9.93;;
17451;SDS011;8843;48.838;9.324;2022-12-16T07:42:21;15.23;;;10.07;;
17451;SDS011;8843;48.838;9.324;2022-12-16T07:45:06;18.80;;;11.17;;
17451;SDS011;8843;48.838;9.324;2022-12-16T07:47:51;22.37;;;12.23;;
17451;SDS011;8843;48.838;9.324;2022-12-16T07:50:36;19.27;;;11.30;;
17451;SDS011;8843;48.838;9.324;2022-12-16T07:53:22;19.53;;;10.63;;
17451;SDS011;8843;48.838;9.324;2022-12-16T07:56:06;18.43;;;11.90;;
17451;SDS011;8843;48.838;9.324;2022-12-16T07:58:51;18.87;;;11.57;;
17451;SDS011;8843;48.838;9.324;2022-12-16T08:01:35;17.50;;;11.33;;
17451;SDS011;8843;48.838;9.324;2022-12-16T08:04:25;17.63;;;11.40;;
17451;SDS011;8843;48.838;9.324;2022-12-16T08:07:09;17.83;;;10.80;;
17451;SDS011;8843;48.838;9.324;2022-12-16T08:09:55;21.53;;;11.63;;
17451;SDS011;8843;48.838;9.324;2022-12-16T08:12:39;18.57;;;11.33;;
17451;SDS011;8843;48.838;9.324;2022-12-16T08:15:23;18.73;;;11.57;;
17451;SDS011;8843;48.838;9.324;2022-12-16T08:18:07;17.33;;;10.23;;
17451;SDS011;8843;48.838;9.324;2022-12-16T08:20:51;21.23;;;11.17;;
17451;SDS011;8843;48.838;9.324;2022-12-16T08:23:36;20.37;;;11.53;;
17451;SDS011;8843;48.838;9.324;2022-12-16T08:26:21;17.93;;;10.60;;
17451;SDS011;8843;48.838;9.324;2022-12-16T08:29:05;18.47;;;11.23;;
17451;SDS011;8843;48.838;9.324;2022-12-16T08:31:49;21.63;;;11.57;;
17451;SDS011;8843;48.838;9.324;2022-12-16T08:34:33;17.53;;;11.10;;
17451;SDS011;8843;48.838;9.324;2022-12-16T08:37:17;20.17;;;11.33;;
17451;SDS011;8843;48.838;9.324;2022-12-16T08:40:02;15.17;;;9.53;;
17451;SDS011;8843;48.838;9.324;2022-12-16T08:42:48;13.97;;;9.47;;
17451;SDS011;8843;48.838;9.324;2022-12-16T08:45:33;16.20;;;9.20;;
17451;SDS011;8843;48.838;9.324;2022-12-16T08:48:17;18.73;;;10.67;;
17451;SDS011;8843;48.838;9.324;2022-12-16T08:51:02;22.53;;;11.47;;
17451;SDS011;8843;48.838;9.324;2022-12-16T08:53:47;15.07;;;9.77;;
17451;SDS011;8843;48.838;9.324;2022-12-16T08:56:31;17.57;;;10.73;;
17451;SDS011;8843;48.838;9.324;2022-12-16T08:59:17;16.90;;;10.77;;
17451;SDS011;8843;48.838;9.324;2022-12-16T09:02:01;20.03;;;10.27;;
17451;SDS011;8843;48.838;9.324;2022-12-16T09:04:46;17.97;;;10.33;;
17451;SDS011;8843;48.838;9.324;2022-12-16T09:07:30;17.70;;;9.30;;
17451;SDS011;8843;48.838;9.324;2022-12-16T09:10:14;16.47;;;9.87;;
17451;SDS011;8843;48.838;9.324;2022-12-16T09:13:04;13.13;;;8.97;;
17451;SDS011;8843;48.838;9.324;2022-12-16T09:15:50;15.03;;;9.50;;
17451;SDS011;8843;48.838;9.324;2022-12-16T09:18:34;14.20;;;9.50;;
17451;SDS011;8843;48.838;9.324;2022-12-16T09:21:18;19.40;;;9.10;;
17451;SDS011;8843;48.838;9.324;2022-12-16T09:24:03;19.10;;;9.63;;
17451;SDS011;8843;48.838;9.324;2022-12-16T09:26:47;15.70;;;8.53;;
17451;SDS011;8843;48.838;9.324;2022-12-16T09:29:32;13.43;;;9.27;;
17451;SDS011;8843;48.838;9.324;2022-12-16T09:32:17;14.60;;;9.53;;
17451;SDS011;8843;48.838;9.324;2022-12-16T09:35:02;15.47;;;9.67;;
17451;SDS011;8843;48.838;9.324;2022-12-16T09:37:46;14.20;;;9.73;;
17451;SDS011;8843;48.838;9.324;2022-12-16T09:40:31;17.27;;;9.93;;
17451;SDS011;8843;48.838;9.324;2022-12-16T09:43:21;14.60;;;9.33;;
17451;SDS011;8843;48.838;9.324;2022-12-16T09:46:21;18.60;;;10.27;;
17451;SDS011;8843;48.838;9.324;2022-12-16T09:49:16;15.97;;;9.60;;
17451;SDS011;8843;48.838;9.324;2022-12-16T09:52:08;16.63;;;10.37;;
17451;SDS011;8843;48.838;9.324;2022-12-16T09:54:57;16.37;;;10.47;;
17451;SDS011;8843;48.838;9.324;2022-12-16T09:57:43;15.60;;;9.90;;
17451;SDS011;8843;48.838;9.324;2022-12-16T10:00:28;15.33;;;9.57;;
17451;SDS011;8843;48.838;9.324;2022-12-16T10:03:14;15.33;;;8.83;;
17451;SDS011;8843;48.838;9.324;2022-12-16T10:06:16;13.20;;;9.07;;
17451;SDS011;8843;48.838;9.324;2022-12-16T10:09:13;15.40;;;8.93;;
17451;SDS011;8843;48.838;9.324;2022-12-16T10:12:09;14.03;;;8.87;;
17451;SDS011;8843;48.838;9.324;2022-12-16T10:15:02;14.47;;;8.60;;
17451;SDS011;8843;48.838;9.324;2022-12-16T10:18:00;14.20;;;9.23;;
17451;SDS011;8843;48.838;9.324;2022-12-16T10:20:48;16.83;;;9.37;;
17451;SDS011;8843;48.838;9.324;2022-12-16T10:23:37;12.93;;;8.47;;
17451;SDS011;8843;48.838;9.324;2022-12-16T10:26:27;12.40;;;8.23;;
17451;SDS011;8843;48.838;9.324;2022-12-16T10:29:19;14.53;;;8.40;;
17451;SDS011;8843;48.838;9.324;2022-12-16T10:32:10;15.43;;;8.77;;
17451;SDS011;8843;48.838;9.324;2022-12-16T10:34:58;14.97;;;9.87;;
17451;SDS011;8843;48.838;9.324;2022-12-16T10:37:44;13.23;;;9.27;;
17451;SDS011;8843;48.838;9.324;2022-12-16T10:40:31;14.20;;;9.10;;
17451;SDS011;8843;48.838;9.324;2022-12-16T10:43:18;14.73;;;9.70;;
17451;SDS011;8843;48.838;9.324;2022-12-16T10:46:09;15.03;;;9.63;;
17451;SDS011;8843;48.838;9.324;2022-12-16T10:49:00;13.60;;;8.17;;
17451;SDS011;8843;48.838;9.324;2022-12-16T10:51:44;11.93;;;8.90;;
17451;SDS011;8843;48.838;9.324;2022-12-16T10:54:31;14.13;;;9.17;;
17451;SDS011;8843;48.838;9.324;2022-12-16T10:57:25;11.93;;;8.10;;
17451;SDS011;8843;48.838;9.324;2022-12-16T11:00:17;16.57;;;10.10;;
17451;SDS011;8843;48.838;9.324;2022-12-16T11:03:16;12.83;;;9.33;;
17451;SDS011;8843;48.838;9.324;2022-12-16T11:06:01;14.13;;;9.30;;
17451;SDS011;8843;48.838;9.324;2022-12-16T11:08:46;14.07;;;9.40;;
17451;SDS011;8843;48.838;9.324;2022-12-16T11:11:30;14.23;;;9.03;;
17451;SDS011;8843;48.838;9.324;2022-12-16T11:14:18;15.87;;;8.40;;
17451;SDS011;8843;48.838;9.324;2022-12-16T11:17:15;15.20;;;8.50;;
17451;SDS011;8843;48.838;9.324;2022-12-16T11:20:11;15.37;;;9.53;;
17451;SDS011;8843;48.838;9.324;2022-12-16T11:23:10;14.43;;;8.73;;
17451;SDS011;8843;48.838;9.324;2022-12-16T11:26:05;14.17;;;9.03;;
17451;SDS011;8843;48.838;9.324;2022-12-16T11:32:02;13.43;;;8.37;;
17451;SDS011;8843;48.838;9.324;2022-12-16T11:34:58;13.83;;;8.60;;
17451;SDS011;8843;48.838;9.324;2022-12-16T11:37:45;16.43;;;8.87;;
17451;SDS011;8843;48.838;9.324;2022-12-16T11:40:34;16.53;;;9.37;;
17451;SDS011;8843;48.838;9.324;2022-12-16T11:43:20;12.73;;;8.03;;
17451;SDS011;8843;48.838;9.324;2022-12-16T11:46:09;14.30;;;8.73;;
17451;SDS011;8843;48.838;9.324;2022-12-16T11:48:58;13.73;;;8.13;;
17451;SDS011;8843;48.838;9.324;2022-12-16T11:51:44;15.30;;;9.43;;
17451;SDS011;8843;48.838;9.324;2022-12-16T11:54:35;13.53;;;8.90;;
17451;SDS011;8843;48.838;9.324;2022-12-16T11:57:36;15.53;;;8.53;;
17451;SDS011;8843;48.838;9.324;2022-12-16T12:00:25;12.03;;;7.63;;
17451;SDS011;8843;48.838;9.324;2022-12-16T12:03:11;13.50;;;8.30;;
17451;SDS011;8843;48.838;9.324;2022-12-16T12:05:59;12.57;;;8.40;;
17451;SDS011;8843;48.838;9.324;2022-12-16T12:08:47;11.33;;;7.57;;
17451;SDS011;8843;48.838;9.324;2022-12-16T12:11:38;12.03;;;9.07;;
17451;SDS011;8843;48.838;9.324;2022-12-16T12:14:31;14.73;;;9.20;;
17451;SDS011;8843;48.838;9.324;2022-12-16T12:17:21;12.27;;;8.40;;
17451;SDS011;8843;48.838;9.324;2022-12-16T12:20:21;12.50;;;7.50;;
17451;SDS011;8843;48.838;9.324;2022-12-16T12:23:33;12.87;;;7.60;;
17451;SDS011;8843;48.838;9.324;2022-12-16T12:26:28;12.67;;;8.10;;
17451;SDS011;8843;48.838;9.324;2022-12-16T12:29:16;11.40;;;7.30;;
17451;SDS011;8843;48.838;9.324;2022-12-16T12:32:10;12.77;;;8.00;;
17451;SDS011;8843;48.838;9.324;2022-12-16T12:35:02;13.67;;;8.50;;
17451;SDS011;8843;48.838;9.324;2022-12-16T12:38:01;12.80;;;7.77;;
17451;SDS011;8843;48.838;9.324;2022-12-16T12:40:55;11.70;;;7.33;;
17451;SDS011;8843;48.838;9.324;2022-12-16T12:43:45;14.33;;;8.50;;
17451;SDS011;8843;48.838;9.324;2022-12-16T12:46:36;12.83;;;7.13;;
17451;SDS011;8843;48.838;9.324;2022-12-16T12:49:28;12.23;;;7.17;;
17451;SDS011;8843;48.838;9.324;2022-12-16T12:52:23;14.77;;;7.97;;
17451;SDS011;8843;48.838;9.324;2022-12-16T12:55:20;13.77;;;8.77;;
17451;SDS011;8843;48.838;9.324;2022-12-16T12:58:12;12.67;;;8.40;;
17451;SDS011;8843;48.838;9.324;2022-12-16T13:00:58;11.80;;;7.80;;
17451;SDS011;8843;48.838;9.324;2022-12-16T13:03:55;12.73;;;7.67;;
17451;SDS011;8843;48.838;9.324;2022-12-16T13:06:43;12.77;;;7.90;;
17451;SDS011;8843;48.838;9.324;2022-12-16T13:09:29;14.10;;;8.57;;
17451;SDS011;8843;48.838;9.324;2022-12-16T13:12:22;11.13;;;7.63;;
17451;SDS011;8843;48.838;9.324;2022-12-16T13:15:14;11.60;;;8.57;;
17451;SDS011;8843;48.838;9.324;2022-12-16T13:18:11;15.93;;;8.53;;
17451;SDS011;8843;48.838;9.324;2022-12-16T13:21:02;12.40;;;7.87;;
17451;SDS011;8843;48.838;9.324;2022-12-16T13:23:47;15.70;;;8.40;;
17451;SDS011;8843;48.838;9.324;2022-12-16T13:26:32;10.23;;;7.60;;
17451;SDS011;8843;48.838;9.324;2022-12-16T13:29:18;14.53;;;8.30;;
17451;SDS011;8843;48.838;9.324;2022-12-16T13:32:14;14.40;;;8.07;;
17451;SDS011;8843;48.838;9.324;2022-12-16T13:35:00;13.37;;;7.97;;
17451;SDS011;8843;48.838;9.324;2022-12-16T13:37:55;14.97;;;9.07;;
17451;SDS011;8843;48.838;9.324;2022-12-16T13:40:48;14.40;;;8.47;;
17451;SDS011;8843;48.838;9.324;2022-12-16T13:43:46;17.20;;;10.13;;
17451;SDS011;8843;48.838;9.324;2022-12-16T13:46:39;15.40;;;9.10;;
17451;SDS011;8843;48.838;9.324;2022-12-16T13:49:44;16.13;;;9.80;;
17451;SDS011;8843;48.838;9.324;2022-12-16T13:52:41;14.00;;;8.00;;
17451;SDS011;8843;48.838;9.324;2022-12-16T13:55:31;13.33;;;8.97;;
17451;SDS011;8843;48.838;9.324;2022-12-16T13:58:25;10.20;;;7.53;;
17451;SDS011;8843;48.838;9.324;2022-12-16T14:01:18;15.03;;;8.93;;
17451;SDS011;8843;48.838;9.324;2022-12-16T14:04:08;13.97;;;8.27;;
17451;SDS011;8843;48.838;9.324;2022-12-16T14:06:55;12.90;;;8.40;;
17451;SDS011;8843;48.838;9.324;2022-12-16T14:09:46;12.53;;;8.00;;
17451;SDS011;8843;48.838;9.324;2022-12-16T14:12:38;12.93;;;8.57;;
17451;SDS011;8843;48.838;9.324;2022-12-16T14:15:41;11.50;;;7.37;;
17451;SDS011;8843;48.838;9.324;2022-12-16T14:18:39;10.83;;;7.77;;
17451;SDS011;8843;48.838;9.324;2022-12-16T14:21:30;10.73;;;6.97;;
17451;SDS011;8843;48.838;9.324;2022-12-16T14:24:21;13.03;;;7.70;;
17451;SDS011;8843;48.838;9.324;2022-12-16T14:27:14;13.47;;;7.67;;
17451;SDS011;8843;48.838;9.324;2022-12-16T14:30:01;12.07;;;7.63;;
17451;SDS011;8843;48.838;9.324;2022-12-16T14:32:56;11.73;;;8.03;;
17451;SDS011;8843;48.838;9.324;2022-12-16T14:35:40;11.83;;;7.77;;
17451;SDS011;8843;48.838;9.324;2022-12-16T14:38:34;14.37;;;8.60;;
17451;SDS011;8843;48.838;9.324;2022-12-16T14:41:20;14.30;;;8.40;;
17451;SDS011;8843;48.838;9.324;2022-12-16T14:44:14;10.43;;;7.47;;
17451;SDS011;8843;48.838;9.324;2022-12-16T14:47:00;13.43;;;8.53;;
17451;SDS011;8843;48.838;9.324;2022-12-16T14:49:49;14.73;;;8.20;;
17451;SDS011;8843;48.838;9.324;2022-12-16T14:52:35;15.03;;;8.47;;
17451;SDS011;8843;48.838;9.324;2022-12-16T14:55:25;15.07;;;9.33;;
17451;SDS011;8843;48.838;9.324;2022-12-16T14:58:13;11.50;;;7.90;;
17451;SDS011;8843;48.838;9.324;2022-12-16T15:01:00;12.23;;;7.37;;
17451;SDS011;8843;48.838;9.324;2022-12-16T15:03:48;10.10;;;7.00;;
17451;SDS011;8843;48.838;9.324;2022-12-16T15:06:34;9.40;;;6.80;;
17451;SDS011;8843;48.838;9.324;2022-12-16T15:09:22;12.63;;;8.03;;
17451;SDS011;8843;48.838;9.324;2022-12-16T15:12:09;14.83;;;8.87;;
17451;SDS011;8843;48.838;9.324;2022-12-16T15:14:56;10.70;;;7.40;;
17451;SDS011;8843;48.838;9.324;2022-12-16T15:17:43;11.50;;;7.77;;
17451;SDS011;8843;48.838;9.324;2022-12-16T15:20:32;14.57;;;7.80;;
17451;SDS011;8843;48.838;9.324;2022-12-16T15:23:19;12.93;;;7.67;;
17451;SDS011;8843;48.838;9.324;2022-12-16T15:26:05;15.20;;;7.70;;
17451;SDS011;8843;48.838;9.324;2022-12-16T15:28:59;16.37;;;8.13;;
17451;SDS011;8843;48.838;9.324;2022-12-16T15:31:44;13.93;;;8.63;;
17451;SDS011;8843;48.838;9.324;2022-12-16T15:34:27;11.03;;;7.37;;
17451;SDS011;8843;48.838;9.324;2022-12-16T15:37:14;16.73;;;9.63;;
17451;SDS011;8843;48.838;9.324;2022-12-16T15:40:04;12.87;;;8.27;;
17451;SDS011;8843;48.838;9.324;2022-12-16T15:43:02;12.73;;;9.03;;
17451;SDS011;8843;48.838;9.324;2022-12-16T15:45:47;16.03;;;9.43;;
17451;SDS011;8843;48.838;9.324;2022-12-16T15:48:34;11.90;;;8.33;;
17451;SDS011;8843;48.838;9.324;2022-12-16T15:51:27;12.27;;;8.80;;
17451;SDS011;8843;48.838;9.324;2022-12-16T15:54:14;12.53;;;8.13;;
17451;SDS011;8843;48.838;9.324;2022-12-16T15:57:00;13.03;;;8.37;;
17451;SDS011;8843;48.838;9.324;2022-12-16T15:59:57;12.03;;;8.40;;
17451;SDS011;8843;48.838;9.324;2022-12-16T16:02:46;15.00;;;7.93;;
17451;SDS011;8843;48.838;9.324;2022-12-16T16:05:32;12.87;;;7.77;;
17451;SDS011;8843;48.838;9.324;2022-12-16T16:08:19;13.83;;;8.57;;
17451;SDS011;8843;48.838;9.324;2022-12-16T16:11:03;13.80;;;8.70;;
17451;SDS011;8843;48.838;9.324;2022-12-16T16:13:48;15.57;;;8.83;;
17451;SDS011;8843;48.838;9.324;2022-12-16T16:16:32;11.67;;;8.20;;
17451;SDS011;8843;48.838;9.324;2022-12-16T16:19:19;15.37;;;8.90;;